createdAt,value
2017-05-29T00:00:00.894Z,0
2017-05-29T00:01:09.786Z,0
2017-05-29T00:02:19.334Z,0
2017-05-29T00:03:28.546Z,0
2017-05-29T00:04:37.770Z,0
2017-05-29T00:05:47.041Z,0
2017-05-29T00:06:55.934Z,0
2017-05-29T00:08:05.160Z,0
2017-05-29T00:09:14.384Z,0
2017-05-29T00:10:23.606Z,0
2017-05-29T00:11:32.900Z,0
2017-05-29T00:12:41.789Z,0
2017-05-29T00:13:51.006Z,0
2017-05-29T00:15:00.880Z,0
2017-05-29T00:16:09.793Z,0
2017-05-29T00:17:18.735Z,0
2017-05-29T00:18:28.273Z,0
2017-05-29T00:19:37.168Z,0
2017-05-29T00:20:47.043Z,0
2017-05-29T00:21:56.275Z,0
2017-05-29T00:23:05.641Z,0
2017-05-29T00:24:14.857Z,0
2017-05-29T00:25:23.757Z,0
2017-05-29T00:26:32.647Z,0
2017-05-29T00:27:41.542Z,0
2017-05-29T00:28:50.915Z,0
2017-05-29T00:30:00.137Z,0
2017-05-29T00:31:09.353Z,0
2017-05-29T00:32:18.248Z,0
2017-05-29T00:33:27.148Z,0
2017-05-29T00:34:36.622Z,0
2017-05-29T00:35:45.848Z,0
2017-05-29T00:36:54.740Z,0
2017-05-29T00:38:04.285Z,0
2017-05-29T00:39:13.174Z,0
2017-05-29T00:40:22.070Z,0
2017-05-29T00:41:30.962Z,0
2017-05-29T00:42:40.180Z,0
2017-05-29T00:43:49.723Z,0
2017-05-29T00:44:59.272Z,0
2017-05-29T00:46:08.495Z,0
2017-05-29T00:47:17.715Z,0
2017-05-29T00:48:26.932Z,0
2017-05-29T00:49:36.148Z,0
2017-05-29T00:50:45.363Z,0
2017-05-29T00:51:54.527Z,0
2017-05-29T00:53:04.078Z,0
2017-05-29T00:54:13.296Z,0
2017-05-29T00:55:22.515Z,0
2017-05-29T00:56:31.467Z,0
2017-05-29T00:57:40.983Z,0
2017-05-29T00:58:50.201Z,0
2017-05-29T00:59:59.432Z,0
2017-05-29T01:01:08.327Z,0
2017-05-29T01:02:17.221Z,0
2017-05-29T01:03:26.867Z,0
2017-05-29T01:04:36.409Z,0
2017-05-29T01:05:45.632Z,0
2017-05-29T01:06:55.496Z,0
2017-05-29T01:08:04.714Z,0
2017-05-29T01:09:14.890Z,0
2017-05-29T01:10:24.438Z,0
2017-05-29T01:11:33.338Z,0
2017-05-29T01:12:42.880Z,0
2017-05-29T01:13:52.439Z,0
2017-05-29T01:15:02.133Z,0
2017-05-29T01:16:11.351Z,0
2017-05-29T01:17:20.248Z,0
2017-05-29T01:18:29.280Z,0
2017-05-29T01:19:38.501Z,0
2017-05-29T01:20:47.492Z,0
2017-05-29T01:21:56.715Z,0
2017-05-29T01:23:05.620Z,0
2017-05-29T01:24:14.842Z,0
2017-05-29T01:25:24.386Z,0
2017-05-29T01:26:33.903Z,0
2017-05-29T01:27:42.798Z,0
2017-05-29T01:28:52.020Z,0
2017-05-29T01:30:02.222Z,0
2017-05-29T01:31:11.440Z,0
2017-05-29T01:32:20.815Z,0
2017-05-29T01:33:30.391Z,0
2017-05-29T01:34:39.287Z,0
2017-05-29T01:35:48.506Z,0
2017-05-29T01:36:57.734Z,0
2017-05-29T01:38:07.427Z,0
2017-05-29T01:39:16.325Z,0
2017-05-29T01:40:25.868Z,0
2017-05-29T01:41:35.088Z,0
2017-05-29T01:42:43.982Z,0
2017-05-29T01:43:53.776Z,0
2017-05-29T01:45:02.669Z,0
2017-05-29T01:46:11.561Z,0
2017-05-29T01:47:20.455Z,0
2017-05-29T01:48:29.675Z,0
2017-05-29T01:49:38.716Z,0
2017-05-29T01:50:47.609Z,0
2017-05-29T01:51:56.831Z,0
2017-05-29T01:53:06.389Z,0
2017-05-29T01:54:15.938Z,0
2017-05-29T01:55:25.164Z,0
2017-05-29T01:56:34.063Z,0
2017-05-29T01:57:43.285Z,0
2017-05-29T01:58:52.503Z,0
2017-05-29T02:00:02.059Z,0
2017-05-29T02:01:11.383Z,0
2017-05-29T02:02:20.275Z,0
2017-05-29T02:03:29.494Z,0
2017-05-29T02:04:38.386Z,0
2017-05-29T02:05:47.277Z,0
2017-05-29T02:06:56.323Z,0
2017-05-29T02:08:05.217Z,0
2017-05-29T02:09:14.105Z,0
2017-05-29T02:10:23.651Z,0
2017-05-29T02:11:32.545Z,0
2017-05-29T02:12:41.915Z,0
2017-05-29T02:13:51.460Z,0
2017-05-29T02:15:00.685Z,0
2017-05-29T02:16:09.574Z,0
2017-05-29T02:17:18.478Z,0
2017-05-29T02:18:27.850Z,0
2017-05-29T02:19:37.391Z,0
2017-05-29T02:20:46.615Z,0
2017-05-29T02:21:55.520Z,0
2017-05-29T02:23:04.414Z,0
2017-05-29T02:24:13.783Z,0
2017-05-29T02:25:22.683Z,0
2017-05-29T02:26:31.599Z,0
2017-05-29T02:27:40.821Z,4
2017-05-29T02:28:50.045Z,4
2017-05-29T02:29:59.898Z,0
2017-05-29T02:31:09.116Z,0
2017-05-29T02:32:18.007Z,0
2017-05-29T02:33:26.906Z,4
2017-05-29T02:34:35.805Z,4
2017-05-29T02:35:44.847Z,0
2017-05-29T02:36:54.068Z,4
2017-05-29T02:38:02.961Z,4
2017-05-29T02:39:11.869Z,4
2017-05-29T02:40:20.765Z,4
2017-05-29T02:41:30.130Z,4
2017-05-29T02:42:39.048Z,8
2017-05-29T02:43:48.597Z,8
2017-05-29T02:44:57.819Z,4
2017-05-29T02:46:06.710Z,8
2017-05-29T02:47:15.976Z,12
2017-05-29T02:48:24.875Z,8
2017-05-29T02:49:34.093Z,12
2017-05-29T02:50:42.986Z,12
2017-05-29T02:51:52.273Z,12
2017-05-29T02:53:02.141Z,16
2017-05-29T02:54:11.362Z,16
2017-05-29T02:55:20.264Z,16
2017-05-29T02:56:29.164Z,20
2017-05-29T02:57:38.706Z,20
2017-05-29T02:58:48.184Z,24
2017-05-29T02:59:57.406Z,24
2017-05-29T03:01:06.629Z,28
2017-05-29T03:02:16.174Z,36
2017-05-29T03:03:25.778Z,40
2017-05-29T03:04:35.476Z,40
2017-05-29T03:05:44.689Z,44
2017-05-29T03:06:53.914Z,48
2017-05-29T03:08:02.811Z,52
2017-05-29T03:09:11.706Z,52
2017-05-29T03:10:20.757Z,56
2017-05-29T03:11:30.302Z,68
2017-05-29T03:12:39.194Z,72
2017-05-29T03:13:48.740Z,76
2017-05-29T03:14:57.635Z,88
2017-05-29T03:16:06.998Z,96
2017-05-29T03:17:16.222Z,100
2017-05-29T03:18:25.766Z,108
2017-05-29T03:19:34.658Z,124
2017-05-29T03:20:44.215Z,136
2017-05-29T03:21:53.806Z,140
2017-05-29T03:23:03.024Z,152
2017-05-29T03:24:12.243Z,156
2017-05-29T03:25:21.460Z,172
2017-05-29T03:26:30.356Z,180
2017-05-29T03:27:39.401Z,196
2017-05-29T03:28:48.627Z,200
2017-05-29T03:29:58.229Z,220
2017-05-29T03:31:07.446Z,240
2017-05-29T03:32:16.663Z,232
2017-05-29T03:33:25.710Z,240
2017-05-29T03:34:35.586Z,256
2017-05-29T03:35:44.800Z,272
2017-05-29T03:36:54.341Z,292
2017-05-29T03:38:03.296Z,320
2017-05-29T03:39:13.465Z,340
2017-05-29T03:40:22.682Z,356
2017-05-29T03:41:31.578Z,364
2017-05-29T03:42:40.800Z,384
2017-05-29T03:43:49.699Z,408
2017-05-29T03:44:58.649Z,408
2017-05-29T03:46:07.864Z,440
2017-05-29T03:47:17.077Z,416
2017-05-29T03:48:26.625Z,436
2017-05-29T03:49:35.522Z,496
2017-05-29T03:50:44.741Z,480
2017-05-29T03:51:53.636Z,420
2017-05-29T03:53:02.856Z,424
2017-05-29T03:54:12.401Z,468
2017-05-29T03:55:21.947Z,460
2017-05-29T03:56:31.314Z,432
2017-05-29T03:57:40.858Z,432
2017-05-29T03:58:50.728Z,452
2017-05-29T03:59:59.951Z,472
2017-05-29T04:01:09.180Z,480
2017-05-29T04:02:18.397Z,528
2017-05-29T04:03:27.939Z,552
2017-05-29T04:04:36.841Z,560
2017-05-29T04:05:46.069Z,608
2017-05-29T04:06:54.961Z,664
2017-05-29T04:08:04.554Z,756
2017-05-29T04:09:14.427Z,820
2017-05-29T04:10:23.645Z,868
2017-05-29T04:11:32.534Z,900
2017-05-29T04:12:41.431Z,888
2017-05-29T04:13:50.968Z,900
2017-05-29T04:15:00.837Z,912
2017-05-29T04:16:09.729Z,896
2017-05-29T04:17:19.344Z,860
2017-05-29T04:18:28.565Z,880
2017-05-29T04:19:37.605Z,996
2017-05-29T04:20:46.823Z,1080
2017-05-29T04:21:56.040Z,1100
2017-05-29T04:23:04.933Z,1224
2017-05-29T04:24:14.479Z,1244
2017-05-29T04:25:24.023Z,1188
2017-05-29T04:26:33.245Z,1268
2017-05-29T04:27:42.464Z,1308
2017-05-29T04:28:51.367Z,1556
2017-05-29T04:30:00.917Z,1752
2017-05-29T04:31:10.132Z,1800
2017-05-29T04:32:19.352Z,1828
2017-05-29T04:33:28.919Z,1720
2017-05-29T04:34:38.468Z,1436
2017-05-29T04:35:47.689Z,1468
2017-05-29T04:36:56.732Z,1500
2017-05-29T04:38:05.957Z,1364
2017-05-29T04:39:15.502Z,1412
2017-05-29T04:40:24.720Z,1376
2017-05-29T04:41:33.945Z,1212
2017-05-29T04:42:43.168Z,1220
2017-05-29T04:43:52.062Z,1220
2017-05-29T04:45:01.617Z,1208
2017-05-29T04:46:10.513Z,1196
2017-05-29T04:47:19.735Z,1188
2017-05-29T04:48:28.732Z,1140
2017-05-29T04:49:37.629Z,1248
2017-05-29T04:50:46.847Z,1260
2017-05-29T04:51:55.744Z,1340
2017-05-29T04:53:04.964Z,1432
2017-05-29T04:54:14.659Z,1584
2017-05-29T04:55:23.554Z,1560
2017-05-29T04:56:32.451Z,1528
2017-05-29T04:57:41.672Z,1544
2017-05-29T04:58:50.889Z,1412
2017-05-29T04:59:59.882Z,1504
2017-05-29T05:01:08.789Z,1556
2017-05-29T05:02:18.012Z,1536
2017-05-29T05:03:27.239Z,1612
2017-05-29T05:04:36.130Z,1836
2017-05-29T05:05:45.127Z,1920
2017-05-29T05:06:54.348Z,1932
2017-05-29T05:08:03.893Z,2028
2017-05-29T05:09:13.110Z,2120
2017-05-29T05:10:22.330Z,2192
2017-05-29T05:11:31.233Z,2596
2017-05-29T05:12:40.457Z,2456
2017-05-29T05:13:49.681Z,2380
2017-05-29T05:14:58.904Z,2364
2017-05-29T05:16:08.775Z,2308
2017-05-29T05:17:17.819Z,2232
2017-05-29T05:18:27.371Z,2160
2017-05-29T05:19:36.920Z,2032
2017-05-29T05:20:46.153Z,2032
2017-05-29T05:21:55.374Z,2076
2017-05-29T05:23:04.421Z,2152
2017-05-29T05:24:13.643Z,1980
2017-05-29T05:25:22.547Z,1900
2017-05-29T05:26:31.446Z,2124
2017-05-29T05:27:40.393Z,2492
2017-05-29T05:28:50.094Z,2812
2017-05-29T05:29:58.992Z,3124
2017-05-29T05:31:08.219Z,3236
2017-05-29T05:32:17.435Z,3276
2017-05-29T05:33:26.658Z,3328
2017-05-29T05:34:36.456Z,3520
2017-05-29T05:35:45.352Z,3780
2017-05-29T05:36:54.245Z,3604
2017-05-29T05:38:03.471Z,3388
2017-05-29T05:39:12.371Z,3320
2017-05-29T05:40:21.744Z,3348
2017-05-29T05:41:30.965Z,3460
2017-05-29T05:42:40.260Z,3520
2017-05-29T05:43:49.487Z,3636
2017-05-29T05:44:58.707Z,3624
2017-05-29T05:46:08.734Z,3596
2017-05-29T05:47:17.635Z,3672
2017-05-29T05:48:26.531Z,3576
2017-05-29T05:49:36.082Z,3860
2017-05-29T05:50:45.307Z,3716
2017-05-29T05:51:54.351Z,3340
2017-05-29T05:53:03.248Z,3028
2017-05-29T05:54:12.145Z,2892
2017-05-29T05:55:21.040Z,2824
2017-05-29T05:56:29.938Z,2816
2017-05-29T05:57:39.191Z,2868
2017-05-29T05:58:48.739Z,2916
2017-05-29T05:59:57.971Z,3324
2017-05-29T06:01:06.872Z,3356
2017-05-29T06:02:15.773Z,3488
2017-05-29T06:03:24.672Z,3808
2017-05-29T06:04:34.219Z,4460
2017-05-29T06:05:43.117Z,5328
2017-05-29T06:06:52.338Z,6036
2017-05-29T06:08:01.563Z,6516
2017-05-29T06:09:10.851Z,6660
2017-05-29T06:10:19.750Z,6708
2017-05-29T06:11:28.974Z,6776
2017-05-29T06:12:38.523Z,6264
2017-05-29T06:13:47.419Z,5636
2017-05-29T06:14:57.122Z,5616
2017-05-29T06:16:06.025Z,5432
2017-05-29T06:17:15.247Z,5276
2017-05-29T06:18:24.144Z,5080
2017-05-29T06:19:33.364Z,4836
2017-05-29T06:20:42.414Z,4572
2017-05-29T06:21:51.651Z,4472
2017-05-29T06:23:00.555Z,4520
2017-05-29T06:24:09.781Z,4632
2017-05-29T06:25:18.674Z,4788
2017-05-29T06:26:27.721Z,4948
2017-05-29T06:27:36.945Z,5080
2017-05-29T06:28:46.495Z,5136
2017-05-29T06:29:55.399Z,5080
2017-05-29T06:31:04.306Z,5024
2017-05-29T06:32:14.003Z,5004
2017-05-29T06:33:22.900Z,5112
2017-05-29T06:34:32.191Z,5216
2017-05-29T06:35:41.087Z,5296
2017-05-29T06:36:49.990Z,5376
2017-05-29T06:37:59.298Z,5424
2017-05-29T06:39:08.525Z,5384
2017-05-29T06:40:17.422Z,5372
2017-05-29T06:41:26.642Z,5420
2017-05-29T06:42:35.537Z,5240
2017-05-29T06:43:45.235Z,5124
2017-05-29T06:44:54.785Z,5300
2017-05-29T06:46:04.010Z,5420
2017-05-29T06:47:13.562Z,5536
2017-05-29T06:48:22.466Z,5724
2017-05-29T06:49:31.947Z,5828
2017-05-29T06:50:41.492Z,6068
2017-05-29T06:51:50.391Z,6148
2017-05-29T06:52:59.614Z,6156
2017-05-29T06:54:08.840Z,6004
2017-05-29T06:55:18.065Z,5840
2017-05-29T06:56:27.292Z,5640
2017-05-29T06:57:36.844Z,5316
2017-05-29T06:58:46.081Z,4920
2017-05-29T06:59:55.302Z,4712
2017-05-29T07:01:05.567Z,4828
2017-05-29T07:02:15.113Z,5376
2017-05-29T07:03:24.017Z,5748
2017-05-29T07:04:33.625Z,5912
2017-05-29T07:05:43.176Z,6076
2017-05-29T07:06:52.273Z,6380
2017-05-29T07:08:01.506Z,6536
2017-05-29T07:09:10.406Z,6544
2017-05-29T07:10:19.301Z,6764
2017-05-29T07:11:28.201Z,7008
2017-05-29T07:12:37.897Z,7152
2017-05-29T07:13:47.129Z,7312
2017-05-29T07:14:56.034Z,7400
2017-05-29T07:16:05.591Z,7640
2017-05-29T07:17:15.465Z,7588
2017-05-29T07:18:24.469Z,7488
2017-05-29T07:19:33.699Z,7436
2017-05-29T07:20:42.930Z,7356
2017-05-29T07:21:52.482Z,7268
2017-05-29T07:23:01.720Z,7144
2017-05-29T07:24:11.142Z,7116
2017-05-29T07:25:20.046Z,7096
2017-05-29T07:26:28.945Z,6940
2017-05-29T07:27:38.173Z,6744
2017-05-29T07:28:47.397Z,6448
2017-05-29T07:29:56.781Z,6012
2017-05-29T07:31:05.682Z,5580
2017-05-29T07:32:15.246Z,5332
2017-05-29T07:33:24.473Z,5668
2017-05-29T07:34:33.373Z,6136
2017-05-29T07:35:42.472Z,6768
2017-05-29T07:36:51.374Z,7804
2017-05-29T07:38:00.954Z,8036
2017-05-29T07:39:09.856Z,7680
2017-05-29T07:40:19.083Z,6556
2017-05-29T07:41:28.408Z,6796
2017-05-29T07:42:37.958Z,7020
2017-05-29T07:43:47.184Z,6872
2017-05-29T07:44:56.754Z,6156
2017-05-29T07:46:06.306Z,6012
2017-05-29T07:47:15.583Z,5820
2017-05-29T07:48:25.456Z,5756
2017-05-29T07:49:34.693Z,5908
2017-05-29T07:50:43.607Z,6180
2017-05-29T07:51:52.511Z,6160
2017-05-29T07:53:01.835Z,5880
2017-05-29T07:54:10.738Z,5604
2017-05-29T07:55:19.640Z,5664
2017-05-29T07:56:29.194Z,5792
2017-05-29T07:57:38.092Z,5944
2017-05-29T07:58:47.367Z,5960
2017-05-29T07:59:56.267Z,5996
2017-05-29T08:01:05.505Z,5724
2017-05-29T08:02:15.054Z,5424
2017-05-29T08:03:23.953Z,5300
2017-05-29T08:04:32.953Z,5240
2017-05-29T08:05:41.849Z,5204
2017-05-29T08:06:51.403Z,5128
2017-05-29T08:08:00.632Z,5076
2017-05-29T08:09:09.856Z,5032
2017-05-29T08:10:19.760Z,5068
2017-05-29T08:11:28.657Z,5196
2017-05-29T08:12:37.626Z,5464
2017-05-29T08:13:46.858Z,5916
2017-05-29T08:14:56.405Z,6764
2017-05-29T08:16:06.385Z,7796
2017-05-29T08:17:15.607Z,8088
2017-05-29T08:18:24.831Z,7784
2017-05-29T08:19:33.792Z,7280
2017-05-29T08:20:42.690Z,6952
2017-05-29T08:21:51.741Z,6284
2017-05-29T08:23:00.966Z,5272
2017-05-29T08:24:10.840Z,4332
2017-05-29T08:25:20.387Z,4076
2017-05-29T08:26:29.609Z,4252
2017-05-29T08:27:39.128Z,4580
2017-05-29T08:28:48.682Z,4616
2017-05-29T08:29:57.596Z,4692
2017-05-29T08:31:06.829Z,4740
2017-05-29T08:32:16.054Z,4772
2017-05-29T08:33:25.632Z,4788
2017-05-29T08:34:34.858Z,4808
2017-05-29T08:35:44.082Z,4812
2017-05-29T08:36:52.980Z,4796
2017-05-29T08:38:01.878Z,4760
2017-05-29T08:39:11.512Z,4720
2017-05-29T08:40:20.737Z,4696
2017-05-29T08:41:29.635Z,4700
2017-05-29T08:42:38.537Z,4724
2017-05-29T08:43:48.086Z,4768
2017-05-29T08:44:57.317Z,4856
2017-05-29T08:46:06.871Z,5000
2017-05-29T08:47:16.427Z,5108
2017-05-29T08:48:25.328Z,5284
2017-05-29T08:49:34.233Z,5456
2017-05-29T08:50:43.397Z,5672
2017-05-29T08:51:52.634Z,5760
2017-05-29T08:53:01.539Z,5868
2017-05-29T08:54:10.436Z,6088
2017-05-29T08:55:19.341Z,6340
2017-05-29T08:56:28.291Z,6576
2017-05-29T08:57:37.520Z,6840
2017-05-29T08:58:46.749Z,7132
2017-05-29T08:59:55.650Z,7500
2017-05-29T09:01:04.871Z,7788
2017-05-29T09:02:14.147Z,7972
2017-05-29T09:03:23.045Z,8156
2017-05-29T09:04:31.941Z,8300
2017-05-29T09:05:40.841Z,8388
2017-05-29T09:06:50.076Z,8436
2017-05-29T09:07:59.402Z,8376
2017-05-29T09:09:08.628Z,8256
2017-05-29T09:10:17.853Z,7980
2017-05-29T09:11:27.081Z,7536
2017-05-29T09:12:35.983Z,6948
2017-05-29T09:13:45.700Z,6360
2017-05-29T09:14:55.249Z,5840
2017-05-29T09:16:04.476Z,5352
2017-05-29T09:17:13.375Z,4884
2017-05-29T09:18:22.278Z,4540
2017-05-29T09:19:31.329Z,4268
2017-05-29T09:20:40.232Z,4012
2017-05-29T09:21:49.462Z,3784
2017-05-29T09:22:59.341Z,3656
2017-05-29T09:24:08.567Z,3648
2017-05-29T09:25:17.522Z,3748
2017-05-29T09:26:26.421Z,3796
2017-05-29T09:27:35.322Z,3852
2017-05-29T09:28:44.552Z,3876
2017-05-29T09:29:53.447Z,3900
2017-05-29T09:31:02.603Z,3848
2017-05-29T09:32:11.507Z,3796
2017-05-29T09:33:20.406Z,3736
2017-05-29T09:34:29.638Z,3724
2017-05-29T09:35:38.862Z,3664
2017-05-29T09:36:47.917Z,3524
2017-05-29T09:37:56.817Z,3448
2017-05-29T09:39:06.046Z,3352
2017-05-29T09:40:15.282Z,3244
2017-05-29T09:41:24.836Z,3184
2017-05-29T09:42:33.737Z,3160
2017-05-29T09:43:42.984Z,3140
2017-05-29T09:44:52.539Z,3104
2017-05-29T09:46:01.762Z,3116
2017-05-29T09:47:10.663Z,3088
2017-05-29T09:48:20.041Z,3116
2017-05-29T09:49:29.265Z,3184
2017-05-29T09:50:39.135Z,3208
2017-05-29T09:51:48.049Z,3196
2017-05-29T09:52:57.600Z,3196
2017-05-29T09:54:06.652Z,3188
2017-05-29T09:55:15.876Z,3208
2017-05-29T09:56:24.774Z,3164
2017-05-29T09:57:34.001Z,3256
2017-05-29T09:58:42.903Z,3308
2017-05-29T09:59:52.520Z,3340
2017-05-29T10:01:01.423Z,3380
2017-05-29T10:02:10.976Z,3376
2017-05-29T10:03:20.214Z,3356
2017-05-29T10:04:29.790Z,3372
2017-05-29T10:05:38.901Z,3448
2017-05-29T10:06:48.123Z,3460
2017-05-29T10:07:57.361Z,3492
2017-05-29T10:09:06.919Z,3552
2017-05-29T10:10:16.145Z,3560
2017-05-29T10:11:25.524Z,3596
2017-05-29T10:12:34.420Z,3624
2017-05-29T10:13:43.318Z,3700
2017-05-29T10:14:52.551Z,3872
2017-05-29T10:16:01.778Z,3964
2017-05-29T10:17:11.475Z,3972
2017-05-29T10:18:20.703Z,3968
2017-05-29T10:19:29.602Z,3928
2017-05-29T10:20:38.508Z,3964
2017-05-29T10:21:47.728Z,3960
2017-05-29T10:22:57.909Z,3972
2017-05-29T10:24:07.461Z,3988
2017-05-29T10:25:17.012Z,4048
2017-05-29T10:26:25.913Z,4092
2017-05-29T10:27:35.139Z,4072
2017-05-29T10:28:44.236Z,4080
2017-05-29T10:29:53.135Z,4136
2017-05-29T10:31:02.361Z,4240
2017-05-29T10:32:11.258Z,4252
2017-05-29T10:33:20.160Z,4264
2017-05-29T10:34:29.162Z,4316
2017-05-29T10:35:38.061Z,4336
2017-05-29T10:36:47.608Z,4360
2017-05-29T10:37:56.559Z,4364
2017-05-29T10:39:05.469Z,4380
2017-05-29T10:40:14.518Z,4384
2017-05-29T10:41:23.418Z,4404
2017-05-29T10:42:32.315Z,4444
2017-05-29T10:43:41.227Z,4480
2017-05-29T10:44:50.137Z,4492
2017-05-29T10:45:59.508Z,4536
2017-05-29T10:47:08.408Z,4576
2017-05-29T10:48:17.312Z,4620
2017-05-29T10:49:26.231Z,4684
2017-05-29T10:50:35.134Z,4700
2017-05-29T10:51:44.414Z,4720
2017-05-29T10:52:53.643Z,4756
2017-05-29T10:54:02.545Z,4788
2017-05-29T10:55:11.447Z,4824
2017-05-29T10:56:20.354Z,4864
2017-05-29T10:57:29.365Z,4892
2017-05-29T10:58:38.654Z,4916
2017-05-29T10:59:47.877Z,4972
2017-05-29T11:00:56.773Z,5008
2017-05-29T11:02:05.678Z,5040
2017-05-29T11:03:14.910Z,5084
2017-05-29T11:04:23.810Z,5116
2017-05-29T11:05:32.705Z,5176
2017-05-29T11:06:41.606Z,5192
2017-05-29T11:07:50.506Z,5212
2017-05-29T11:08:59.503Z,5212
2017-05-29T11:10:08.420Z,5176
2017-05-29T11:11:17.395Z,5140
2017-05-29T11:12:26.692Z,5160
2017-05-29T11:13:35.594Z,5196
2017-05-29T11:14:44.590Z,5200
2017-05-29T11:15:53.818Z,5204
2017-05-29T11:17:02.722Z,5224
2017-05-29T11:18:11.621Z,5308
2017-05-29T11:19:20.849Z,5368
2017-05-29T11:20:29.999Z,5420
2017-05-29T11:21:38.897Z,5520
2017-05-29T11:22:48.122Z,5636
2017-05-29T11:23:57.350Z,5696
2017-05-29T11:25:06.251Z,5732
2017-05-29T11:26:15.218Z,5772
2017-05-29T11:27:24.444Z,5784
2017-05-29T11:28:33.992Z,5784
2017-05-29T11:29:42.893Z,5792
2017-05-29T11:30:51.809Z,5800
2017-05-29T11:32:01.188Z,5812
2017-05-29T11:33:10.088Z,5864
2017-05-29T11:34:19.009Z,5920
2017-05-29T11:35:28.558Z,5988
2017-05-29T11:36:37.458Z,6048
2017-05-29T11:37:46.411Z,6116
2017-05-29T11:38:55.633Z,6188
2017-05-29T11:40:04.533Z,6260
2017-05-29T11:41:13.435Z,6348
2017-05-29T11:42:22.338Z,6488
2017-05-29T11:43:31.486Z,6648
2017-05-29T11:44:40.393Z,6812
2017-05-29T11:45:49.293Z,7008
2017-05-29T11:46:58.196Z,7284
2017-05-29T11:48:07.760Z,7588
2017-05-29T11:49:16.663Z,7868
2017-05-29T11:50:25.897Z,8232
2017-05-29T11:51:34.816Z,9944
2017-05-29T11:52:44.045Z,52160
2017-05-29T11:53:53.283Z,80160
2017-05-29T11:55:02.332Z,80896
2017-05-29T11:56:11.242Z,81600
2017-05-29T11:57:20.144Z,82880
2017-05-29T11:58:29.048Z,78976
2017-05-29T11:59:38.331Z,71680
2017-05-29T12:00:47.646Z,73888
2017-05-29T12:01:56.963Z,81248
2017-05-29T12:03:05.876Z,82624
2017-05-29T12:04:14.790Z,80416
2017-05-29T12:05:24.069Z,81760
2017-05-29T12:06:33.376Z,84736
2017-05-29T12:07:42.624Z,83040
2017-05-29T12:08:51.542Z,82624
2017-05-29T12:10:00.773Z,80576
2017-05-29T12:11:09.682Z,80608
2017-05-29T12:12:18.767Z,85280
2017-05-29T12:13:27.726Z,83744
2017-05-29T12:14:36.671Z,78560
2017-05-29T12:15:45.591Z,81216
2017-05-29T12:16:54.842Z,82144
2017-05-29T12:18:04.553Z,76768
2017-05-29T12:19:13.475Z,89920
2017-05-29T12:20:22.391Z,95232
2017-05-29T12:21:31.302Z,93888
2017-05-29T12:22:40.242Z,91424
2017-05-29T12:23:49.173Z,87328
2017-05-29T12:24:58.100Z,85984
2017-05-29T12:26:07.105Z,80384
2017-05-29T12:27:16.037Z,84864
2017-05-29T12:28:24.962Z,80800
2017-05-29T12:29:33.885Z,72928
2017-05-29T12:30:42.797Z,87744
2017-05-29T12:31:51.716Z,77536
2017-05-29T12:33:00.956Z,59520
2017-05-29T12:34:09.870Z,55200
2017-05-29T12:35:19.258Z,47552
2017-05-29T12:36:28.175Z,48416
2017-05-29T12:37:37.092Z,45728
2017-05-29T12:38:46.009Z,37056
2017-05-29T12:39:55.254Z,40768
2017-05-29T12:41:04.550Z,49248
2017-05-29T12:42:13.468Z,55840
2017-05-29T12:43:22.709Z,60192
2017-05-29T12:44:31.623Z,67648
2017-05-29T12:45:40.547Z,77120
2017-05-29T12:46:49.616Z,86464
2017-05-29T12:47:58.869Z,88000
2017-05-29T12:49:07.785Z,88768
2017-05-29T12:50:17.028Z,92128
2017-05-29T12:51:25.943Z,87488
2017-05-29T12:52:34.913Z,85504
2017-05-29T12:53:43.829Z,83296
2017-05-29T12:54:52.742Z,78944
2017-05-29T12:56:01.658Z,82432
2017-05-29T12:57:10.580Z,79872
2017-05-29T12:58:19.506Z,75776
2017-05-29T12:59:28.422Z,80064
2017-05-29T13:00:37.360Z,83232
2017-05-29T13:01:46.293Z,87008
2017-05-29T13:02:55.216Z,88704
2017-05-29T13:04:04.618Z,86752
2017-05-29T13:05:13.540Z,77888
2017-05-29T13:06:22.468Z,73952
2017-05-29T13:07:31.779Z,77472
2017-05-29T13:08:41.027Z,84960
2017-05-29T13:09:50.043Z,80032
2017-05-29T13:10:59.313Z,74656
2017-05-29T13:12:08.283Z,72064
2017-05-29T13:13:17.538Z,75776
2017-05-29T13:14:26.456Z,68512
2017-05-29T13:15:35.526Z,68000
2017-05-29T13:16:44.446Z,65920
2017-05-29T13:17:53.361Z,68736
2017-05-29T13:19:02.608Z,49024
2017-05-29T13:20:11.543Z,48032
2017-05-29T13:21:20.512Z,67264
2017-05-29T13:22:29.429Z,70528
2017-05-29T13:23:38.356Z,53920
2017-05-29T13:24:47.272Z,57344
2017-05-29T13:25:56.188Z,74336
2017-05-29T13:27:05.259Z,69760
2017-05-29T13:28:14.502Z,67040
2017-05-29T13:29:23.421Z,68832
2017-05-29T13:30:32.342Z,66272
2017-05-29T13:31:41.578Z,62336
2017-05-29T13:32:50.975Z,63904
2017-05-29T13:33:59.892Z,64384
2017-05-29T13:35:08.815Z,70016
2017-05-29T13:36:17.734Z,68768
2017-05-29T13:37:26.660Z,68672
2017-05-29T13:38:35.744Z,71104
2017-05-29T13:39:44.990Z,71168
2017-05-29T13:40:53.909Z,71168
2017-05-29T13:42:03.151Z,70272
2017-05-29T13:43:12.074Z,68384
2017-05-29T13:44:21.239Z,72096
2017-05-29T13:45:30.161Z,70624
2017-05-29T13:46:39.083Z,69056
2017-05-29T13:47:48.653Z,68704
2017-05-29T13:48:57.567Z,69184
2017-05-29T13:50:07.134Z,67808
2017-05-29T13:51:16.700Z,64064
2017-05-29T13:52:25.953Z,61056
2017-05-29T13:53:35.196Z,59584
2017-05-29T13:54:44.439Z,63936
2017-05-29T13:55:53.661Z,63392
2017-05-29T13:57:02.576Z,64864
2017-05-29T13:58:11.495Z,67264
2017-05-29T13:59:20.737Z,66976
2017-05-29T14:00:29.655Z,57248
2017-05-29T14:01:38.629Z,60064
2017-05-29T14:02:47.548Z,57280
2017-05-29T14:03:56.468Z,63296
2017-05-29T14:05:06.040Z,63488
2017-05-29T14:06:14.956Z,60704
2017-05-29T14:07:24.404Z,64448
2017-05-29T14:08:33.322Z,67008
2017-05-29T14:09:42.238Z,67360
2017-05-29T14:10:51.158Z,70944
2017-05-29T14:12:00.072Z,74496
2017-05-29T14:13:09.142Z,72064
2017-05-29T14:14:18.383Z,70432
2017-05-29T14:15:27.313Z,72192
2017-05-29T14:16:36.603Z,72192
2017-05-29T14:17:45.537Z,69984
2017-05-29T14:18:54.855Z,69760
2017-05-29T14:20:04.107Z,71680
2017-05-29T14:21:13.030Z,71008
2017-05-29T14:22:21.954Z,65184
2017-05-29T14:23:31.197Z,61600
2017-05-29T14:24:40.172Z,59136
2017-05-29T14:25:49.092Z,55776
2017-05-29T14:26:58.031Z,51872
2017-05-29T14:28:07.281Z,47264
2017-05-29T14:29:16.199Z,46784
2017-05-29T14:30:25.844Z,45344
2017-05-29T14:31:34.762Z,43840
2017-05-29T14:32:43.685Z,40128
2017-05-29T14:33:52.604Z,28224
2017-05-29T14:35:01.531Z,23040
2017-05-29T14:36:10.605Z,30272
2017-05-29T14:37:19.553Z,39104
2017-05-29T14:38:28.506Z,42304
2017-05-29T14:39:37.465Z,42592
2017-05-29T14:40:47.034Z,54336
2017-05-29T14:41:56.616Z,58688
2017-05-29T14:43:05.537Z,67552
2017-05-29T14:44:14.453Z,68800
2017-05-29T14:45:23.739Z,74304
2017-05-29T14:46:32.655Z,76256
2017-05-29T14:47:41.726Z,73600
2017-05-29T14:48:50.651Z,72544
2017-05-29T14:49:59.570Z,73376
2017-05-29T14:51:08.504Z,72928
2017-05-29T14:52:18.072Z,72512
2017-05-29T14:53:26.994Z,73536
2017-05-29T14:54:36.238Z,73984
2017-05-29T14:55:45.159Z,71712
2017-05-29T14:56:54.748Z,71008
2017-05-29T14:58:03.989Z,69472
2017-05-29T14:59:12.910Z,72192
2017-05-29T15:00:22.162Z,72256
2017-05-29T15:01:31.409Z,58912
2017-05-29T15:02:40.327Z,58624
2017-05-29T15:03:49.250Z,51296
2017-05-29T15:04:58.322Z,50880
2017-05-29T15:06:07.265Z,46112
2017-05-29T15:07:16.181Z,38080
2017-05-29T15:08:25.102Z,36448
2017-05-29T15:09:34.343Z,31680
2017-05-29T15:10:43.457Z,25312
2017-05-29T15:11:52.397Z,23520
2017-05-29T15:13:01.640Z,18272
2017-05-29T15:14:10.557Z,16992
2017-05-29T15:15:19.800Z,19744
2017-05-29T15:16:28.866Z,22336
2017-05-29T15:17:37.839Z,26048
2017-05-29T15:18:46.759Z,35712
2017-05-29T15:19:55.676Z,39040
2017-05-29T15:21:04.603Z,37376
2017-05-29T15:22:13.893Z,35488
2017-05-29T15:23:22.856Z,41856
2017-05-29T15:24:32.100Z,43552
2017-05-29T15:25:41.348Z,47360
2017-05-29T15:26:50.268Z,42976
2017-05-29T15:27:59.378Z,45600
2017-05-29T15:29:08.297Z,52608
2017-05-29T15:30:17.221Z,52608
2017-05-29T15:31:26.136Z,53440
2017-05-29T15:32:35.381Z,54176
2017-05-29T15:33:44.451Z,56448